sensor_id;sensor_type;location;lat;lon;timestamp;pressure;altitude;pressure_sealevel;temperature
8937;BMP180;4503;47.810;13.072;2022-07-24T00:01:35;97048.00;;;26.50
8937;BMP180;4503;47.810;13.072;2022-07-24T00:04:04;97024.00;;;26.50
8937;BMP180;4503;47.810;13.072;2022-07-24T00:06:31;97043.00;;;26.50
8937;BMP180;4503;47.810;13.072;2022-07-24T00:08:57;97032.00;;;26.50
8937;BMP180;4503;47.810;13.072;2022-07-24T00:11:23;97022.00;;;26.50
8937;BMP180;4503;47.810;13.072;2022-07-24T00:13:48;97028.00;;;26.50
8937;BMP180;4503;47.810;13.072;2022-07-24T00:16:14;97038.00;;;26.50
8937;BMP180;4503;47.810;13.072;2022-07-24T00:18:40;97042.00;;;26.50
8937;BMP180;4503;47.810;13.072;2022-07-24T00:21:07;97026.00;;;26.50
8937;BMP180;4503;47.810;13.072;2022-07-24T00:23:33;97039.00;;;26.50
8937;BMP180;4503;47.810;13.072;2022-07-24T00:26:00;97042.00;;;26.60
8937;BMP180;4503;47.810;13.072;2022-07-24T00:28:26;97038.00;;;26.60
8937;BMP180;4503;47.810;13.072;2022-07-24T00:30:52;97036.00;;;26.60
8937;BMP180;4503;47.810;13.072;2022-07-24T00:33:18;97047.00;;;26.60
8937;BMP180;4503;47.810;13.072;2022-07-24T00:35:44;97043.00;;;26.60
8937;BMP180;4503;47.810;13.072;2022-07-24T00:38:10;97048.00;;;26.70
8937;BMP180;4503;47.810;13.072;2022-07-24T00:40:36;97051.00;;;26.70
8937;BMP180;4503;47.810;13.072;2022-07-24T00:43:03;97042.00;;;26.80
8937;BMP180;4503;47.810;13.072;2022-07-24T00:48:06;97041.00;;;26.80
8937;BMP180;4503;47.810;13.072;2022-07-24T00:50:32;97035.00;;;26.70
8937;BMP180;4503;47.810;13.072;2022-07-24T00:52:58;97042.00;;;26.70
8937;BMP180;4503;47.810;13.072;2022-07-24T00:55:25;97039.00;;;26.70
8937;BMP180;4503;47.810;13.072;2022-07-24T00:57:51;97043.00;;;26.70
8937;BMP180;4503;47.810;13.072;2022-07-24T01:00:21;97033.00;;;26.70
8937;BMP180;4503;47.810;13.072;2022-07-24T01:02:49;97040.00;;;26.70
8937;BMP180;4503;47.810;13.072;2022-07-24T01:05:17;97032.00;;;26.70
8937;BMP180;4503;47.810;13.072;2022-07-24T01:07:43;97042.00;;;26.60
8937;BMP180;4503;47.810;13.072;2022-07-24T01:10:10;97042.00;;;26.60
8937;BMP180;4503;47.810;13.072;2022-07-24T01:12:39;97040.00;;;26.50
8937;BMP180;4503;47.810;13.072;2022-07-24T01:15:08;97046.00;;;26.50
8937;BMP180;4503;47.810;13.072;2022-07-24T01:17:38;97026.00;;;26.50
8937;BMP180;4503;47.810;13.072;2022-07-24T01:20:06;97022.00;;;26.40
8937;BMP180;4503;47.810;13.072;2022-07-24T01:22:32;97028.00;;;26.40
8937;BMP180;4503;47.810;13.072;2022-07-24T01:24:58;97021.00;;;26.30
8937;BMP180;4503;47.810;13.072;2022-07-24T01:27:25;97022.00;;;26.30
8937;BMP180;4503;47.810;13.072;2022-07-24T01:29:51;97017.00;;;26.30
8937;BMP180;4503;47.810;13.072;2022-07-24T01:32:18;97016.00;;;26.30
8937;BMP180;4503;47.810;13.072;2022-07-24T01:34:44;97015.00;;;26.30
8937;BMP180;4503;47.810;13.072;2022-07-24T01:37:10;97019.00;;;26.30
8937;BMP180;4503;47.810;13.072;2022-07-24T01:39:36;97019.00;;;26.30
8937;BMP180;4503;47.810;13.072;2022-07-24T01:42:02;97013.00;;;26.30
8937;BMP180;4503;47.810;13.072;2022-07-24T01:44:28;97011.00;;;26.30
8937;BMP180;4503;47.810;13.072;2022-07-24T01:46:54;97013.00;;;26.30
8937;BMP180;4503;47.810;13.072;2022-07-24T01:49:19;97019.00;;;26.20
8937;BMP180;4503;47.810;13.072;2022-07-24T01:51:45;97018.00;;;26.20
8937;BMP180;4503;47.810;13.072;2022-07-24T01:54:11;97014.00;;;26.20
8937;BMP180;4503;47.810;13.072;2022-07-24T01:56:37;97015.00;;;26.10
8937;BMP180;4503;47.810;13.072;2022-07-24T01:59:03;97013.00;;;26.10
8937;BMP180;4503;47.810;13.072;2022-07-24T02:01:29;97007.00;;;26.10
8937;BMP180;4503;47.810;13.072;2022-07-24T02:03:55;97009.00;;;26.10
8937;BMP180;4503;47.810;13.072;2022-07-24T02:06:22;97002.00;;;26.10
8937;BMP180;4503;47.810;13.072;2022-07-24T02:08:48;97003.00;;;26.00
8937;BMP180;4503;47.810;13.072;2022-07-24T02:11:14;96998.00;;;26.00
8937;BMP180;4503;47.810;13.072;2022-07-24T02:13:40;96991.00;;;26.10
8937;BMP180;4503;47.810;13.072;2022-07-24T02:16:06;96996.00;;;26.10
8937;BMP180;4503;47.810;13.072;2022-07-24T02:18:32;96988.00;;;26.10
8937;BMP180;4503;47.810;13.072;2022-07-24T02:20:58;96988.00;;;26.10
8937;BMP180;4503;47.810;13.072;2022-07-24T02:23:24;96991.00;;;26.10
8937;BMP180;4503;47.810;13.072;2022-07-24T02:25:51;96992.00;;;26.10
8937;BMP180;4503;47.810;13.072;2022-07-24T02:28:17;96990.00;;;26.20
8937;BMP180;4503;47.810;13.072;2022-07-24T02:30:44;96982.00;;;26.10
8937;BMP180;4503;47.810;13.072;2022-07-24T02:33:10;96986.00;;;26.10
8937;BMP180;4503;47.810;13.072;2022-07-24T02:35:37;96985.00;;;26.10
8937;BMP180;4503;47.810;13.072;2022-07-24T02:38:04;96987.00;;;26.00
8937;BMP180;4503;47.810;13.072;2022-07-24T02:40:31;96982.00;;;26.00
8937;BMP180;4503;47.810;13.072;2022-07-24T02:42:57;96973.00;;;26.00
8937;BMP180;4503;47.810;13.072;2022-07-24T02:45:23;96989.00;;;26.00
8937;BMP180;4503;47.810;13.072;2022-07-24T02:47:56;96979.00;;;26.00
8937;BMP180;4503;47.810;13.072;2022-07-24T02:50:32;96985.00;;;26.00
8937;BMP180;4503;47.810;13.072;2022-07-24T02:52:58;96998.00;;;26.00
8937;BMP180;4503;47.810;13.072;2022-07-24T02:55:24;96988.00;;;26.00
8937;BMP180;4503;47.810;13.072;2022-07-24T02:57:54;96982.00;;;26.00
8937;BMP180;4503;47.810;13.072;2022-07-24T03:00:22;96988.00;;;26.00
8937;BMP180;4503;47.810;13.072;2022-07-24T03:02:48;96987.00;;;25.90
8937;BMP180;4503;47.810;13.072;2022-07-24T03:05:14;96999.00;;;25.80
8937;BMP180;4503;47.810;13.072;2022-07-24T03:07:40;97001.00;;;25.80
8937;BMP180;4503;47.810;13.072;2022-07-24T03:10:10;97007.00;;;25.70
8937;BMP180;4503;47.810;13.072;2022-07-24T03:12:36;97007.00;;;25.70
8937;BMP180;4503;47.810;13.072;2022-07-24T03:15:03;97006.00;;;25.60
8937;BMP180;4503;47.810;13.072;2022-07-24T03:17:29;97010.00;;;25.60
8937;BMP180;4503;47.810;13.072;2022-07-24T03:19:55;97007.00;;;25.60
8937;BMP180;4503;47.810;13.072;2022-07-24T03:22:21;97009.00;;;25.50
8937;BMP180;4503;47.810;13.072;2022-07-24T03:24:47;97020.00;;;25.50
8937;BMP180;4503;47.810;13.072;2022-07-24T03:27:12;97004.00;;;25.40
8937;BMP180;4503;47.810;13.072;2022-07-24T03:29:38;97009.00;;;25.40
8937;BMP180;4503;47.810;13.072;2022-07-24T03:32:05;97007.00;;;25.40
8937;BMP180;4503;47.810;13.072;2022-07-24T03:34:31;97011.00;;;25.40
8937;BMP180;4503;47.810;13.072;2022-07-24T03:36:56;97006.00;;;25.40
8937;BMP180;4503;47.810;13.072;2022-07-24T03:39:22;97010.00;;;25.40
8937;BMP180;4503;47.810;13.072;2022-07-24T03:41:48;97014.00;;;25.50
8937;BMP180;4503;47.810;13.072;2022-07-24T03:44:15;97015.00;;;25.50
8937;BMP180;4503;47.810;13.072;2022-07-24T03:46:41;97016.00;;;25.50
8937;BMP180;4503;47.810;13.072;2022-07-24T03:49:07;97006.00;;;25.50
8937;BMP180;4503;47.810;13.072;2022-07-24T03:51:34;97008.00;;;25.50
8937;BMP180;4503;47.810;13.072;2022-07-24T03:54:02;97014.00;;;25.50
8937;BMP180;4503;47.810;13.072;2022-07-24T03:56:28;97019.00;;;25.50
8937;BMP180;4503;47.810;13.072;2022-07-24T03:58:54;97019.00;;;25.60
8937;BMP180;4503;47.810;13.072;2022-07-24T04:01:21;97023.00;;;25.60
8937;BMP180;4503;47.810;13.072;2022-07-24T04:03:48;97022.00;;;25.70
8937;BMP180;4503;47.810;13.072;2022-07-24T04:06:14;97033.00;;;25.70
8937;BMP180;4503;47.810;13.072;2022-07-24T04:08:40;97018.00;;;25.70
8937;BMP180;4503;47.810;13.072;2022-07-24T04:11:06;97028.00;;;25.80
8937;BMP180;4503;47.810;13.072;2022-07-24T04:13:33;97038.00;;;25.80
8937;BMP180;4503;47.810;13.072;2022-07-24T04:15:59;97035.00;;;25.80
8937;BMP180;4503;47.810;13.072;2022-07-24T04:18:26;97041.00;;;25.90
8937;BMP180;4503;47.810;13.072;2022-07-24T04:20:52;97044.00;;;25.90
8937;BMP180;4503;47.810;13.072;2022-07-24T04:23:18;97043.00;;;25.90
8937;BMP180;4503;47.810;13.072;2022-07-24T04:25:45;97045.00;;;25.90
8937;BMP180;4503;47.810;13.072;2022-07-24T04:28:11;97050.00;;;26.00
8937;BMP180;4503;47.810;13.072;2022-07-24T04:30:37;97049.00;;;26.00
8937;BMP180;4503;47.810;13.072;2022-07-24T04:33:03;97059.00;;;26.10
8937;BMP180;4503;47.810;13.072;2022-07-24T04:35:28;97051.00;;;26.10
8937;BMP180;4503;47.810;13.072;2022-07-24T04:37:54;97055.00;;;26.20
8937;BMP180;4503;47.810;13.072;2022-07-24T04:40:20;97056.00;;;26.20
8937;BMP180;4503;47.810;13.072;2022-07-24T04:42:46;97051.00;;;26.20
8937;BMP180;4503;47.810;13.072;2022-07-24T04:45:12;97054.00;;;26.30
8937;BMP180;4503;47.810;13.072;2022-07-24T04:47:38;97050.00;;;26.30
8937;BMP180;4503;47.810;13.072;2022-07-24T04:50:08;97057.00;;;26.30
8937;BMP180;4503;47.810;13.072;2022-07-24T04:52:34;97050.00;;;26.40
8937;BMP180;4503;47.810;13.072;2022-07-24T04:55:00;97051.00;;;26.30
8937;BMP180;4503;47.810;13.072;2022-07-24T04:57:26;97049.00;;;26.40
8937;BMP180;4503;47.810;13.072;2022-07-24T04:59:52;97053.00;;;26.40
8937;BMP180;4503;47.810;13.072;2022-07-24T05:02:17;97051.00;;;26.40
8937;BMP180;4503;47.810;13.072;2022-07-24T05:04:43;97057.00;;;26.40
8937;BMP180;4503;47.810;13.072;2022-07-24T05:07:09;97051.00;;;26.40
8937;BMP180;4503;47.810;13.072;2022-07-24T05:09:35;97052.00;;;26.40
8937;BMP180;4503;47.810;13.072;2022-07-24T05:12:01;97058.00;;;26.50
8937;BMP180;4503;47.810;13.072;2022-07-24T05:14:27;97051.00;;;26.60
8937;BMP180;4503;47.810;13.072;2022-07-24T05:16:53;97054.00;;;26.60
8937;BMP180;4503;47.810;13.072;2022-07-24T05:19:19;97061.00;;;26.70
8937;BMP180;4503;47.810;13.072;2022-07-24T05:21:45;97064.00;;;26.60
8937;BMP180;4503;47.810;13.072;2022-07-24T05:24:11;97058.00;;;26.60
8937;BMP180;4503;47.810;13.072;2022-07-24T05:26:37;97057.00;;;26.60
8937;BMP180;4503;47.810;13.072;2022-07-24T05:29:04;97066.00;;;26.60
8937;BMP180;4503;47.810;13.072;2022-07-24T05:31:34;97071.00;;;26.70
8937;BMP180;4503;47.810;13.072;2022-07-24T05:34:00;97064.00;;;26.70
8937;BMP180;4503;47.810;13.072;2022-07-24T05:37:14;97061.00;;;26.70
8937;BMP180;4503;47.810;13.072;2022-07-24T05:39:40;97056.00;;;26.70
8937;BMP180;4503;47.810;13.072;2022-07-24T05:42:06;97056.00;;;26.70
8937;BMP180;4503;47.810;13.072;2022-07-24T05:44:32;97058.00;;;26.70
8937;BMP180;4503;47.810;13.072;2022-07-24T05:46:58;97061.00;;;26.70
8937;BMP180;4503;47.810;13.072;2022-07-24T05:49:24;97058.00;;;26.70
8937;BMP180;4503;47.810;13.072;2022-07-24T05:51:50;97061.00;;;26.70
8937;BMP180;4503;47.810;13.072;2022-07-24T05:54:16;97062.00;;;26.70
8937;BMP180;4503;47.810;13.072;2022-07-24T05:56:42;97071.00;;;26.70
8937;BMP180;4503;47.810;13.072;2022-07-24T05:59:07;97062.00;;;26.70
8937;BMP180;4503;47.810;13.072;2022-07-24T06:01:33;97071.00;;;26.80
8937;BMP180;4503;47.810;13.072;2022-07-24T06:03:59;97057.00;;;26.80
8937;BMP180;4503;47.810;13.072;2022-07-24T06:06:25;97054.00;;;26.80
8937;BMP180;4503;47.810;13.072;2022-07-24T06:08:51;97051.00;;;26.80
8937;BMP180;4503;47.810;13.072;2022-07-24T06:11:17;97051.00;;;26.90
8937;BMP180;4503;47.810;13.072;2022-07-24T06:13:48;97055.00;;;27.00
8937;BMP180;4503;47.810;13.072;2022-07-24T06:16:14;97052.00;;;27.00
8937;BMP180;4503;47.810;13.072;2022-07-24T06:18:40;97049.00;;;27.00
8937;BMP180;4503;47.810;13.072;2022-07-24T06:21:07;97052.00;;;27.00
8937;BMP180;4503;47.810;13.072;2022-07-24T06:23:33;97052.00;;;27.00
8937;BMP180;4503;47.810;13.072;2022-07-24T06:25:59;97056.00;;;27.10
8937;BMP180;4503;47.810;13.072;2022-07-24T06:28:26;97057.00;;;27.20
8937;BMP180;4503;47.810;13.072;2022-07-24T06:30:51;97049.00;;;27.20
8937;BMP180;4503;47.810;13.072;2022-07-24T06:33:17;97050.00;;;27.30
8937;BMP180;4503;47.810;13.072;2022-07-24T06:35:43;97047.00;;;27.40
8937;BMP180;4503;47.810;13.072;2022-07-24T06:38:09;97042.00;;;27.60
8937;BMP180;4503;47.810;13.072;2022-07-24T06:40:36;97046.00;;;27.70
8937;BMP180;4503;47.810;13.072;2022-07-24T06:43:03;97048.00;;;27.80
8937;BMP180;4503;47.810;13.072;2022-07-24T06:45:29;97039.00;;;27.90
8937;BMP180;4503;47.810;13.072;2022-07-24T06:48:00;97049.00;;;28.00
8937;BMP180;4503;47.810;13.072;2022-07-24T06:50:27;97045.00;;;28.10
8937;BMP180;4503;47.810;13.072;2022-07-24T06:52:53;97045.00;;;28.10
8937;BMP180;4503;47.810;13.072;2022-07-24T06:55:19;97048.00;;;28.20
8937;BMP180;4503;47.810;13.072;2022-07-24T06:57:45;97046.00;;;28.20
8937;BMP180;4503;47.810;13.072;2022-07-24T07:00:11;97041.00;;;28.30
8937;BMP180;4503;47.810;13.072;2022-07-24T07:02:37;97041.00;;;28.30
8937;BMP180;4503;47.810;13.072;2022-07-24T07:05:08;97050.00;;;28.30
8937;BMP180;4503;47.810;13.072;2022-07-24T07:07:37;97043.00;;;28.30
8937;BMP180;4503;47.810;13.072;2022-07-24T07:10:04;97049.00;;;28.20
8937;BMP180;4503;47.810;13.072;2022-07-24T07:12:31;97042.00;;;28.30
8937;BMP180;4503;47.810;13.072;2022-07-24T07:14:57;97047.00;;;28.30
8937;BMP180;4503;47.810;13.072;2022-07-24T07:17:25;97046.00;;;28.40
8937;BMP180;4503;47.810;13.072;2022-07-24T07:19:51;97042.00;;;28.40
8937;BMP180;4503;47.810;13.072;2022-07-24T07:22:17;97043.00;;;28.40
8937;BMP180;4503;47.810;13.072;2022-07-24T07:24:43;97042.00;;;28.50
8937;BMP180;4503;47.810;13.072;2022-07-24T07:27:09;97043.00;;;28.50
8937;BMP180;4503;47.810;13.072;2022-07-24T07:29:35;97045.00;;;28.60
8937;BMP180;4503;47.810;13.072;2022-07-24T07:32:01;97048.00;;;28.70
8937;BMP180;4503;47.810;13.072;2022-07-24T07:34:26;97041.00;;;28.70
8937;BMP180;4503;47.810;13.072;2022-07-24T07:36:53;97036.00;;;28.80
8937;BMP180;4503;47.810;13.072;2022-07-24T07:39:19;97042.00;;;28.90
8937;BMP180;4503;47.810;13.072;2022-07-24T07:41:44;97043.00;;;29.00
8937;BMP180;4503;47.810;13.072;2022-07-24T07:44:11;97046.00;;;29.00
8937;BMP180;4503;47.810;13.072;2022-07-24T07:46:37;97044.00;;;29.10
8937;BMP180;4503;47.810;13.072;2022-07-24T07:49:03;97041.00;;;29.10
8937;BMP180;4503;47.810;13.072;2022-07-24T07:51:29;97048.00;;;29.20
8937;BMP180;4503;47.810;13.072;2022-07-24T07:53:55;97039.00;;;29.30
8937;BMP180;4503;47.810;13.072;2022-07-24T07:56:21;97046.00;;;29.30
8937;BMP180;4503;47.810;13.072;2022-07-24T07:58:47;97043.00;;;29.40
8937;BMP180;4503;47.810;13.072;2022-07-24T08:01:13;97048.00;;;29.50
8937;BMP180;4503;47.810;13.072;2022-07-24T08:03:39;97042.00;;;29.60
8937;BMP180;4503;47.810;13.072;2022-07-24T10:00:54;97012.00;;;33.20
8937;BMP180;4503;47.810;13.072;2022-07-24T10:03:26;97006.00;;;33.30
8937;BMP180;4503;47.810;13.072;2022-07-24T10:06:02;97006.00;;;33.40
8937;BMP180;4503;47.810;13.072;2022-07-24T10:08:29;97012.00;;;33.50
8937;BMP180;4503;47.810;13.072;2022-07-24T10:14:07;97010.00;;;33.60
8937;BMP180;4503;47.810;13.072;2022-07-24T10:16:41;96996.00;;;33.60
8937;BMP180;4503;47.810;13.072;2022-07-24T10:19:15;96999.00;;;33.60
8937;BMP180;4503;47.810;13.072;2022-07-24T10:21:53;96990.00;;;33.60
8937;BMP180;4503;47.810;13.072;2022-07-24T10:27:37;96990.00;;;33.60
8937;BMP180;4503;47.810;13.072;2022-07-24T10:30:06;96985.00;;;33.60
8937;BMP180;4503;47.810;13.072;2022-07-24T10:32:34;96981.00;;;33.70
8937;BMP180;4503;47.810;13.072;2022-07-24T10:35:06;96985.00;;;33.70
8937;BMP180;4503;47.810;13.072;2022-07-24T10:40:52;96982.00;;;33.80
8937;BMP180;4503;47.810;13.072;2022-07-24T10:43:22;96984.00;;;33.80
8937;BMP180;4503;47.810;13.072;2022-07-24T10:56:39;96973.00;;;34.20
8937;BMP180;4503;47.810;13.072;2022-07-24T10:59:12;96970.00;;;34.30
8937;BMP180;4503;47.810;13.072;2022-07-24T11:01:46;96975.00;;;34.40
8937;BMP180;4503;47.810;13.072;2022-07-24T11:06:53;96969.00;;;34.70
8937;BMP180;4503;47.810;13.072;2022-07-24T11:09:25;96965.00;;;34.80
8937;BMP180;4503;47.810;13.072;2022-07-24T11:14:24;96961.00;;;34.90
8937;BMP180;4503;47.810;13.072;2022-07-24T11:16:51;96953.00;;;35.00
8937;BMP180;4503;47.810;13.072;2022-07-24T11:21:46;96962.00;;;35.10
8937;BMP180;4503;47.810;13.072;2022-07-24T11:27:07;96948.00;;;35.10
8937;BMP180;4503;47.810;13.072;2022-07-24T11:29:38;96945.00;;;35.20
8937;BMP180;4503;47.810;13.072;2022-07-24T11:32:14;96941.00;;;35.30
8937;BMP180;4503;47.810;13.072;2022-07-24T11:34:46;96940.00;;;35.30
8937;BMP180;4503;47.810;13.072;2022-07-24T11:37:12;96941.00;;;35.50
8937;BMP180;4503;47.810;13.072;2022-07-24T11:39:41;96940.00;;;35.60
8937;BMP180;4503;47.810;13.072;2022-07-24T11:42:10;96939.00;;;35.80
8937;BMP180;4503;47.810;13.072;2022-07-24T11:44:42;96950.00;;;35.80
8937;BMP180;4503;47.810;13.072;2022-07-24T11:47:28;96940.00;;;35.70
8937;BMP180;4503;47.810;13.072;2022-07-24T11:49:57;96940.00;;;35.70
8937;BMP180;4503;47.810;13.072;2022-07-24T11:52:40;96938.00;;;35.70
8937;BMP180;4503;47.810;13.072;2022-07-24T11:55:18;96934.00;;;35.80
8937;BMP180;4503;47.810;13.072;2022-07-24T11:57:54;96927.00;;;35.90
8937;BMP180;4503;47.810;13.072;2022-07-24T12:00:25;96931.00;;;36.10
8937;BMP180;4503;47.810;13.072;2022-07-24T12:02:59;96927.00;;;36.40
8937;BMP180;4503;47.810;13.072;2022-07-24T12:05:38;96932.00;;;36.60
8937;BMP180;4503;47.810;13.072;2022-07-24T12:08:22;96928.00;;;36.70
8937;BMP180;4503;47.810;13.072;2022-07-24T12:10:58;96930.00;;;36.60
8937;BMP180;4503;47.810;13.072;2022-07-24T12:13:32;96928.00;;;36.60
8937;BMP180;4503;47.810;13.072;2022-07-24T12:15:58;96927.00;;;36.70
8937;BMP180;4503;47.810;13.072;2022-07-24T12:18:25;96927.00;;;37.00
8937;BMP180;4503;47.810;13.072;2022-07-24T12:20:51;96926.00;;;37.20
8937;BMP180;4503;47.810;13.072;2022-07-24T12:23:18;96925.00;;;37.50
8937;BMP180;4503;47.810;13.072;2022-07-24T12:25:45;96924.00;;;37.70
8937;BMP180;4503;47.810;13.072;2022-07-24T12:28:17;96919.00;;;38.00
8937;BMP180;4503;47.810;13.072;2022-07-24T12:30:46;96914.00;;;38.20
8937;BMP180;4503;47.810;13.072;2022-07-24T12:36:10;96919.00;;;38.40
8937;BMP180;4503;47.810;13.072;2022-07-24T12:38:53;96910.00;;;38.50
8937;BMP180;4503;47.810;13.072;2022-07-24T12:41:23;96917.00;;;38.60
8937;BMP180;4503;47.810;13.072;2022-07-24T12:44:05;96914.00;;;38.50
8937;BMP180;4503;47.810;13.072;2022-07-24T12:49:12;96910.00;;;38.40
8937;BMP180;4503;47.810;13.072;2022-07-24T12:51:59;96908.00;;;38.20
8937;BMP180;4503;47.810;13.072;2022-07-24T12:54:32;96907.00;;;38.30
8937;BMP180;4503;47.810;13.072;2022-07-24T12:57:12;96907.00;;;38.30
8937;BMP180;4503;47.810;13.072;2022-07-24T12:59:41;96904.00;;;38.30
8937;BMP180;4503;47.810;13.072;2022-07-24T13:02:15;96895.00;;;38.40
8937;BMP180;4503;47.810;13.072;2022-07-24T13:04:45;96898.00;;;38.50
8937;BMP180;4503;47.810;13.072;2022-07-24T13:07:13;96889.00;;;38.70
8937;BMP180;4503;47.810;13.072;2022-07-24T13:09:40;96897.00;;;38.80
8937;BMP180;4503;47.810;13.072;2022-07-24T13:12:08;96896.00;;;38.90
8937;BMP180;4503;47.810;13.072;2022-07-24T13:14:35;96896.00;;;38.90
8937;BMP180;4503;47.810;13.072;2022-07-24T13:17:08;96887.00;;;38.90
8937;BMP180;4503;47.810;13.072;2022-07-24T13:19:41;96882.00;;;39.00
8937;BMP180;4503;47.810;13.072;2022-07-24T13:22:08;96877.00;;;39.10
8937;BMP180;4503;47.810;13.072;2022-07-24T13:24:34;96882.00;;;39.20
8937;BMP180;4503;47.810;13.072;2022-07-24T13:27:04;96878.00;;;39.40
8937;BMP180;4503;47.810;13.072;2022-07-24T13:29:30;96876.00;;;39.60
8937;BMP180;4503;47.810;13.072;2022-07-24T13:31:57;96884.00;;;39.90
8937;BMP180;4503;47.810;13.072;2022-07-24T13:34:23;96877.00;;;40.00
8937;BMP180;4503;47.810;13.072;2022-07-24T13:36:49;96870.00;;;40.00
8937;BMP180;4503;47.810;13.072;2022-07-24T13:39:16;96881.00;;;40.00
8937;BMP180;4503;47.810;13.072;2022-07-24T13:41:42;96876.00;;;40.00
8937;BMP180;4503;47.810;13.072;2022-07-24T13:44:08;96873.00;;;40.00
8937;BMP180;4503;47.810;13.072;2022-07-24T13:46:34;96875.00;;;40.10
8937;BMP180;4503;47.810;13.072;2022-07-24T13:49:05;96872.00;;;40.10
8937;BMP180;4503;47.810;13.072;2022-07-24T13:51:32;96874.00;;;40.00
8937;BMP180;4503;47.810;13.072;2022-07-24T13:53:58;96870.00;;;40.00
8937;BMP180;4503;47.810;13.072;2022-07-24T13:56:26;96861.00;;;40.10
8937;BMP180;4503;47.810;13.072;2022-07-24T13:58:52;96860.00;;;40.20
8937;BMP180;4503;47.810;13.072;2022-07-24T14:01:19;96867.00;;;40.20
8937;BMP180;4503;47.810;13.072;2022-07-24T14:03:46;96865.00;;;40.10
8937;BMP180;4503;47.810;13.072;2022-07-24T14:06:12;96858.00;;;40.10
8937;BMP180;4503;47.810;13.072;2022-07-24T14:08:39;96855.00;;;40.10
8937;BMP180;4503;47.810;13.072;2022-07-24T14:11:07;96847.00;;;40.30
8937;BMP180;4503;47.810;13.072;2022-07-24T14:13:33;96845.00;;;40.60
8937;BMP180;4503;47.810;13.072;2022-07-24T14:15:59;96840.00;;;41.20
8937;BMP180;4503;47.810;13.072;2022-07-24T14:18:25;96845.00;;;42.00
8937;BMP180;4503;47.810;13.072;2022-07-24T14:20:51;96840.00;;;42.70
8937;BMP180;4503;47.810;13.072;2022-07-24T14:23:17;96840.00;;;43.00
8937;BMP180;4503;47.810;13.072;2022-07-24T14:25:44;96825.00;;;42.90
8937;BMP180;4503;47.810;13.072;2022-07-24T14:28:12;96836.00;;;43.00
8937;BMP180;4503;47.810;13.072;2022-07-24T14:30:38;96827.00;;;42.90
8937;BMP180;4503;47.810;13.072;2022-07-24T14:33:04;96833.00;;;43.30
8937;BMP180;4503;47.810;13.072;2022-07-24T14:35:30;96832.00;;;43.80
8937;BMP180;4503;47.810;13.072;2022-07-24T14:37:57;96828.00;;;44.30
8937;BMP180;4503;47.810;13.072;2022-07-24T14:40:24;96837.00;;;44.80
8937;BMP180;4503;47.810;13.072;2022-07-24T14:42:50;96836.00;;;45.10
8937;BMP180;4503;47.810;13.072;2022-07-24T14:45:16;96825.00;;;45.40
8937;BMP180;4503;47.810;13.072;2022-07-24T14:47:42;96830.00;;;45.70
8937;BMP180;4503;47.810;13.072;2022-07-24T14:50:09;96830.00;;;45.90
8937;BMP180;4503;47.810;13.072;2022-07-24T14:52:36;96825.00;;;46.10
8937;BMP180;4503;47.810;13.072;2022-07-24T14:55:04;96821.00;;;46.20
8937;BMP180;4503;47.810;13.072;2022-07-24T14:57:30;96828.00;;;46.30
8937;BMP180;4503;47.810;13.072;2022-07-24T14:59:56;96825.00;;;46.40
8937;BMP180;4503;47.810;13.072;2022-07-24T15:02:22;96816.00;;;46.70
8937;BMP180;4503;47.810;13.072;2022-07-24T15:04:48;96813.00;;;47.20
8937;BMP180;4503;47.810;13.072;2022-07-24T15:07:14;96814.00;;;47.50
8937;BMP180;4503;47.810;13.072;2022-07-24T15:09:40;96821.00;;;47.90
8937;BMP180;4503;47.810;13.072;2022-07-24T15:12:06;96815.00;;;48.30
8937;BMP180;4503;47.810;13.072;2022-07-24T15:14:33;96804.00;;;48.60
8937;BMP180;4503;47.810;13.072;2022-07-24T15:16:59;96807.00;;;48.80
8937;BMP180;4503;47.810;13.072;2022-07-24T15:19:25;96808.00;;;48.80
8937;BMP180;4503;47.810;13.072;2022-07-24T15:21:51;96804.00;;;48.90
8937;BMP180;4503;47.810;13.072;2022-07-24T15:24:18;96805.00;;;49.20
8937;BMP180;4503;47.810;13.072;2022-07-24T15:26:44;96806.00;;;49.40
8937;BMP180;4503;47.810;13.072;2022-07-24T15:29:11;96804.00;;;49.60
8937;BMP180;4503;47.810;13.072;2022-07-24T15:31:37;96799.00;;;49.70
8937;BMP180;4503;47.810;13.072;2022-07-24T15:34:04;96801.00;;;49.60
8937;BMP180;4503;47.810;13.072;2022-07-24T15:36:31;96793.00;;;49.50
8937;BMP180;4503;47.810;13.072;2022-07-24T15:38:57;96795.00;;;49.40
8937;BMP180;4503;47.810;13.072;2022-07-24T15:41:23;96790.00;;;49.10
8937;BMP180;4503;47.810;13.072;2022-07-24T15:43:49;96785.00;;;48.90
8937;BMP180;4503;47.810;13.072;2022-07-24T15:46:15;96792.00;;;48.90
8937;BMP180;4503;47.810;13.072;2022-07-24T15:48:41;96784.00;;;49.10
8937;BMP180;4503;47.810;13.072;2022-07-24T15:51:07;96780.00;;;49.10
8937;BMP180;4503;47.810;13.072;2022-07-24T15:53:34;96785.00;;;49.00
8937;BMP180;4503;47.810;13.072;2022-07-24T15:55:59;96782.00;;;48.90
8937;BMP180;4503;47.810;13.072;2022-07-24T15:58:25;96767.00;;;48.90
8937;BMP180;4503;47.810;13.072;2022-07-24T16:00:51;96770.00;;;48.70
8937;BMP180;4503;47.810;13.072;2022-07-24T16:03:17;96773.00;;;48.50
8937;BMP180;4503;47.810;13.072;2022-07-24T16:05:43;96762.00;;;48.40
8937;BMP180;4503;47.810;13.072;2022-07-24T16:08:09;96762.00;;;48.50
8937;BMP180;4503;47.810;13.072;2022-07-24T16:10:35;96765.00;;;48.50
8937;BMP180;4503;47.810;13.072;2022-07-24T16:13:00;96763.00;;;48.40
8937;BMP180;4503;47.810;13.072;2022-07-24T16:15:26;96759.00;;;48.40
8937;BMP180;4503;47.810;13.072;2022-07-24T16:17:52;96756.00;;;48.40
8937;BMP180;4503;47.810;13.072;2022-07-24T16:20:18;96758.00;;;48.40
8937;BMP180;4503;47.810;13.072;2022-07-24T16:22:44;96755.00;;;48.20
8937;BMP180;4503;47.810;13.072;2022-07-24T16:25:10;96754.00;;;48.20
8937;BMP180;4503;47.810;13.072;2022-07-24T16:27:37;96752.00;;;48.10
8937;BMP180;4503;47.810;13.072;2022-07-24T16:30:04;96748.00;;;48.40
8937;BMP180;4503;47.810;13.072;2022-07-24T16:32:31;96742.00;;;48.50
8937;BMP180;4503;47.810;13.072;2022-07-24T16:34:57;96745.00;;;48.30
8937;BMP180;4503;47.810;13.072;2022-07-24T16:37:23;96735.00;;;48.10
8937;BMP180;4503;47.810;13.072;2022-07-24T16:39:49;96740.00;;;47.80
8937;BMP180;4503;47.810;13.072;2022-07-24T16:42:14;96745.00;;;47.40
8937;BMP180;4503;47.810;13.072;2022-07-24T16:44:40;96745.00;;;47.00
8937;BMP180;4503;47.810;13.072;2022-07-24T16:47:07;96743.00;;;46.70
8937;BMP180;4503;47.810;13.072;2022-07-24T16:49:33;96743.00;;;46.60
8937;BMP180;4503;47.810;13.072;2022-07-24T16:51:59;96746.00;;;46.40
8937;BMP180;4503;47.810;13.072;2022-07-24T16:54:25;96747.00;;;46.30
8937;BMP180;4503;47.810;13.072;2022-07-24T16:56:59;96725.00;;;46.10